sensor_id;sensor_type;location;lat;lon;timestamp;P1;durP1;ratioP1;P2;durP2;ratioP2
78838;SDS011;68405;47.190;27.558;2024-02-26T00:00:07;29.20;;;13.80;;
78838;SDS011;68405;47.190;27.558;2024-02-26T00:02:37;24.30;;;12.40;;
78838;SDS011;68405;47.190;27.558;2024-02-26T00:05:07;36.10;;;13.60;;
78838;SDS011;68405;47.190;27.558;2024-02-26T00:07:36;30.10;;;13.50;;
78838;SDS011;68405;47.190;27.558;2024-02-26T00:10:06;29.40;;;13.30;;
78838;SDS011;68405;47.190;27.558;2024-02-26T00:12:36;23.80;;;12.10;;
78838;SDS011;68405;47.190;27.558;2024-02-26T00:15:06;23.70;;;11.90;;
78838;SDS011;68405;47.190;27.558;2024-02-26T00:17:37;31.70;;;13.40;;
78838;SDS011;68405;47.190;27.558;2024-02-26T00:20:07;21.60;;;11.60;;
78838;SDS011;68405;47.190;27.558;2024-02-26T00:22:37;23.40;;;12.40;;
78838;SDS011;68405;47.190;27.558;2024-02-26T00:25:07;24.50;;;11.90;;
78838;SDS011;68405;47.190;27.558;2024-02-26T00:27:36;25.40;;;12.30;;
78838;SDS011;68405;47.190;27.558;2024-02-26T00:30:07;23.70;;;11.70;;
78838;SDS011;68405;47.190;27.558;2024-02-26T00:32:37;21.70;;;12.20;;
78838;SDS011;68405;47.190;27.558;2024-02-26T00:35:06;25.80;;;12.40;;
78838;SDS011;68405;47.190;27.558;2024-02-26T00:37:37;31.70;;;13.10;;
78838;SDS011;68405;47.190;27.558;2024-02-26T00:40:07;33.90;;;14.60;;
78838;SDS011;68405;47.190;27.558;2024-02-26T00:42:36;26.30;;;12.80;;
78838;SDS011;68405;47.190;27.558;2024-02-26T00:45:06;25.80;;;13.00;;
78838;SDS011;68405;47.190;27.558;2024-02-26T00:47:36;21.70;;;12.50;;
78838;SDS011;68405;47.190;27.558;2024-02-26T00:50:05;28.20;;;12.80;;
78838;SDS011;68405;47.190;27.558;2024-02-26T00:52:35;19.90;;;11.10;;
78838;SDS011;68405;47.190;27.558;2024-02-26T00:55:05;27.90;;;12.70;;
78838;SDS011;68405;47.190;27.558;2024-02-26T00:57:35;29.50;;;12.20;;
78838;SDS011;68405;47.190;27.558;2024-02-26T01:00:05;17.80;;;7.70;;
78838;SDS011;68405;47.190;27.558;2024-02-26T01:02:36;29.90;;;12.20;;
78838;SDS011;68405;47.190;27.558;2024-02-26T01:05:06;20.40;;;8.90;;
78838;SDS011;68405;47.190;27.558;2024-02-26T01:07:36;22.80;;;11.50;;
78838;SDS011;68405;47.190;27.558;2024-02-26T01:10:07;31.70;;;11.80;;
78838;SDS011;68405;47.190;27.558;2024-02-26T01:12:37;24.00;;;11.10;;
78838;SDS011;68405;47.190;27.558;2024-02-26T01:15:06;21.30;;;10.70;;
78838;SDS011;68405;47.190;27.558;2024-02-26T01:17:36;18.00;;;8.80;;
78838;SDS011;68405;47.190;27.558;2024-02-26T01:20:06;23.70;;;11.30;;
78838;SDS011;68405;47.190;27.558;2024-02-26T01:22:36;23.20;;;11.30;;
78838;SDS011;68405;47.190;27.558;2024-02-26T01:25:07;25.10;;;12.90;;
78838;SDS011;68405;47.190;27.558;2024-02-26T01:27:37;16.50;;;9.10;;
78838;SDS011;68405;47.190;27.558;2024-02-26T01:30:08;25.30;;;11.10;;
78838;SDS011;68405;47.190;27.558;2024-02-26T01:32:38;25.90;;;10.90;;
78838;SDS011;68405;47.190;27.558;2024-02-26T01:35:07;15.70;;;6.40;;
78838;SDS011;68405;47.190;27.558;2024-02-26T01:37:38;18.10;;;8.50;;
78838;SDS011;68405;47.190;27.558;2024-02-26T01:40:09;17.70;;;8.80;;
78838;SDS011;68405;47.190;27.558;2024-02-26T01:42:39;18.70;;;9.80;;
78838;SDS011;68405;47.190;27.558;2024-02-26T01:45:09;26.70;;;11.10;;
78838;SDS011;68405;47.190;27.558;2024-02-26T01:47:48;21.30;;;10.00;;
78838;SDS011;68405;47.190;27.558;2024-02-26T01:50:18;23.10;;;9.20;;
78838;SDS011;68405;47.190;27.558;2024-02-26T01:52:49;16.30;;;8.50;;
78838;SDS011;68405;47.190;27.558;2024-02-26T01:55:18;16.40;;;8.50;;
78838;SDS011;68405;47.190;27.558;2024-02-26T01:57:50;17.70;;;9.90;;
78838;SDS011;68405;47.190;27.558;2024-02-26T02:00:21;19.00;;;10.00;;
78838;SDS011;68405;47.190;27.558;2024-02-26T02:02:50;18.90;;;9.80;;
78838;SDS011;68405;47.190;27.558;2024-02-26T02:05:21;17.10;;;7.60;;
78838;SDS011;68405;47.190;27.558;2024-02-26T02:07:52;20.00;;;9.30;;
78838;SDS011;68405;47.190;27.558;2024-02-26T02:10:22;20.10;;;9.10;;
78838;SDS011;68405;47.190;27.558;2024-02-26T02:12:52;16.30;;;8.60;;
78838;SDS011;68405;47.190;27.558;2024-02-26T02:15:21;12.90;;;6.80;;
78838;SDS011;68405;47.190;27.558;2024-02-26T02:17:50;18.80;;;7.90;;
78838;SDS011;68405;47.190;27.558;2024-02-26T02:22:54;15.20;;;6.40;;
78838;SDS011;68405;47.190;27.558;2024-02-26T02:25:23;14.00;;;7.70;;
78838;SDS011;68405;47.190;27.558;2024-02-26T02:27:52;16.50;;;7.60;;
78838;SDS011;68405;47.190;27.558;2024-02-26T02:30:22;13.30;;;7.70;;
78838;SDS011;68405;47.190;27.558;2024-02-26T02:32:54;18.40;;;7.50;;
78838;SDS011;68405;47.190;27.558;2024-02-26T02:35:24;10.90;;;6.50;;
78838;SDS011;68405;47.190;27.558;2024-02-26T02:37:56;15.40;;;7.50;;
78838;SDS011;68405;47.190;27.558;2024-02-26T02:40:25;13.80;;;6.90;;
78838;SDS011;68405;47.190;27.558;2024-02-26T02:42:54;14.10;;;6.00;;
78838;SDS011;68405;47.190;27.558;2024-02-26T02:45:23;17.40;;;6.30;;
78838;SDS011;68405;47.190;27.558;2024-02-26T02:47:52;10.80;;;6.60;;
78838;SDS011;68405;47.190;27.558;2024-02-26T02:50:20;16.40;;;6.60;;
78838;SDS011;68405;47.190;27.558;2024-02-26T02:52:49;15.00;;;6.20;;
78838;SDS011;68405;47.190;27.558;2024-02-26T02:55:18;14.70;;;6.00;;
78838;SDS011;68405;47.190;27.558;2024-02-26T02:57:47;17.50;;;7.60;;
78838;SDS011;68405;47.190;27.558;2024-02-26T03:00:17;14.40;;;6.90;;
78838;SDS011;68405;47.190;27.558;2024-02-26T03:02:46;11.50;;;4.90;;
78838;SDS011;68405;47.190;27.558;2024-02-26T03:05:15;13.90;;;6.40;;
78838;SDS011;68405;47.190;27.558;2024-02-26T03:07:44;14.40;;;6.50;;
78838;SDS011;68405;47.190;27.558;2024-02-26T03:10:13;10.50;;;5.90;;
78838;SDS011;68405;47.190;27.558;2024-02-26T03:12:42;12.20;;;5.90;;
78838;SDS011;68405;47.190;27.558;2024-02-26T03:15:11;10.90;;;5.40;;
78838;SDS011;68405;47.190;27.558;2024-02-26T03:17:41;8.30;;;3.80;;
78838;SDS011;68405;47.190;27.558;2024-02-26T03:20:10;11.50;;;6.10;;
78838;SDS011;68405;47.190;27.558;2024-02-26T03:22:40;14.40;;;5.70;;
78838;SDS011;68405;47.190;27.558;2024-02-26T03:25:09;13.90;;;6.80;;
78838;SDS011;68405;47.190;27.558;2024-02-26T03:27:37;13.10;;;6.80;;
78838;SDS011;68405;47.190;27.558;2024-02-26T03:30:07;11.50;;;5.90;;
78838;SDS011;68405;47.190;27.558;2024-02-26T03:32:37;12.30;;;5.50;;
78838;SDS011;68405;47.190;27.558;2024-02-26T03:35:06;13.20;;;5.70;;
78838;SDS011;68405;47.190;27.558;2024-02-26T03:37:36;12.20;;;5.30;;
78838;SDS011;68405;47.190;27.558;2024-02-26T03:40:06;12.70;;;5.90;;
78838;SDS011;68405;47.190;27.558;2024-02-26T03:42:36;11.80;;;4.80;;
78838;SDS011;68405;47.190;27.558;2024-02-26T03:45:06;12.90;;;5.10;;
78838;SDS011;68405;47.190;27.558;2024-02-26T03:47:37;12.00;;;5.70;;
78838;SDS011;68405;47.190;27.558;2024-02-26T03:50:07;14.10;;;5.90;;
78838;SDS011;68405;47.190;27.558;2024-02-26T03:52:37;14.10;;;6.20;;
78838;SDS011;68405;47.190;27.558;2024-02-26T03:55:06;10.70;;;5.50;;
78838;SDS011;68405;47.190;27.558;2024-02-26T03:57:36;8.10;;;4.60;;
78838;SDS011;68405;47.190;27.558;2024-02-26T04:00:06;12.90;;;5.10;;
78838;SDS011;68405;47.190;27.558;2024-02-26T04:02:36;12.40;;;5.30;;
78838;SDS011;68405;47.190;27.558;2024-02-26T04:05:08;12.50;;;4.80;;
78838;SDS011;68405;47.190;27.558;2024-02-26T04:07:38;9.10;;;4.70;;
78838;SDS011;68405;47.190;27.558;2024-02-26T04:10:09;9.80;;;5.00;;
78838;SDS011;68405;47.190;27.558;2024-02-26T04:12:39;9.00;;;4.80;;
78838;SDS011;68405;47.190;27.558;2024-02-26T04:15:09;16.60;;;5.50;;
78838;SDS011;68405;47.190;27.558;2024-02-26T04:17:38;13.60;;;4.90;;
78838;SDS011;68405;47.190;27.558;2024-02-26T04:20:12;10.30;;;4.80;;
78838;SDS011;68405;47.190;27.558;2024-02-26T04:22:43;10.60;;;5.50;;
78838;SDS011;68405;47.190;27.558;2024-02-26T04:25:13;13.20;;;5.50;;
78838;SDS011;68405;47.190;27.558;2024-02-26T04:27:41;7.60;;;4.70;;
78838;SDS011;68405;47.190;27.558;2024-02-26T04:30:11;12.20;;;4.40;;
78838;SDS011;68405;47.190;27.558;2024-02-26T04:32:40;13.10;;;4.70;;
78838;SDS011;68405;47.190;27.558;2024-02-26T04:35:10;16.70;;;4.70;;
78838;SDS011;68405;47.190;27.558;2024-02-26T04:37:39;17.70;;;5.90;;
78838;SDS011;68405;47.190;27.558;2024-02-26T04:40:08;7.00;;;4.40;;
78838;SDS011;68405;47.190;27.558;2024-02-26T04:42:38;11.40;;;5.20;;
78838;SDS011;68405;47.190;27.558;2024-02-26T04:45:07;7.90;;;4.40;;
78838;SDS011;68405;47.190;27.558;2024-02-26T04:47:37;9.60;;;4.40;;
78838;SDS011;68405;47.190;27.558;2024-02-26T04:50:06;14.80;;;5.50;;
78838;SDS011;68405;47.190;27.558;2024-02-26T04:52:36;9.60;;;5.60;;
78838;SDS011;68405;47.190;27.558;2024-02-26T04:55:05;9.50;;;4.70;;
78838;SDS011;68405;47.190;27.558;2024-02-26T04:57:35;10.90;;;5.20;;
78838;SDS011;68405;47.190;27.558;2024-02-26T05:00:04;13.40;;;5.50;;
78838;SDS011;68405;47.190;27.558;2024-02-26T05:02:35;5.40;;;4.10;;
78838;SDS011;68405;47.190;27.558;2024-02-26T05:05:05;7.00;;;3.30;;
78838;SDS011;68405;47.190;27.558;2024-02-26T05:07:39;13.70;;;5.40;;
78838;SDS011;68405;47.190;27.558;2024-02-26T05:10:09;11.40;;;4.50;;
78838;SDS011;68405;47.190;27.558;2024-02-26T05:12:38;5.90;;;3.00;;
78838;SDS011;68405;47.190;27.558;2024-02-26T05:15:10;9.50;;;5.10;;
78838;SDS011;68405;47.190;27.558;2024-02-26T05:17:45;10.50;;;4.10;;
78838;SDS011;68405;47.190;27.558;2024-02-26T05:20:14;13.00;;;5.10;;
78838;SDS011;68405;47.190;27.558;2024-02-26T05:22:43;10.70;;;4.90;;
78838;SDS011;68405;47.190;27.558;2024-02-26T05:25:12;9.20;;;4.10;;
78838;SDS011;68405;47.190;27.558;2024-02-26T05:27:43;9.20;;;4.70;;
78838;SDS011;68405;47.190;27.558;2024-02-26T05:30:13;10.70;;;4.60;;
78838;SDS011;68405;47.190;27.558;2024-02-26T05:32:42;13.20;;;5.80;;
78838;SDS011;68405;47.190;27.558;2024-02-26T05:35:12;7.60;;;4.50;;
78838;SDS011;68405;47.190;27.558;2024-02-26T05:37:41;12.50;;;4.90;;
78838;SDS011;68405;47.190;27.558;2024-02-26T05:40:11;8.60;;;3.90;;
78838;SDS011;68405;47.190;27.558;2024-02-26T05:42:40;9.40;;;3.80;;
78838;SDS011;68405;47.190;27.558;2024-02-26T05:45:11;12.00;;;5.40;;
78838;SDS011;68405;47.190;27.558;2024-02-26T05:47:40;10.10;;;4.90;;
78838;SDS011;68405;47.190;27.558;2024-02-26T05:50:10;11.40;;;4.90;;
78838;SDS011;68405;47.190;27.558;2024-02-26T05:52:40;13.00;;;5.60;;
78838;SDS011;68405;47.190;27.558;2024-02-26T05:55:10;8.90;;;4.20;;
78838;SDS011;68405;47.190;27.558;2024-02-26T05:57:47;9.30;;;4.10;;
78838;SDS011;68405;47.190;27.558;2024-02-26T06:00:17;11.90;;;5.00;;
78838;SDS011;68405;47.190;27.558;2024-02-26T06:02:47;11.00;;;5.10;;
78838;SDS011;68405;47.190;27.558;2024-02-26T06:05:16;9.20;;;4.40;;
78838;SDS011;68405;47.190;27.558;2024-02-26T06:07:45;13.00;;;5.20;;
78838;SDS011;68405;47.190;27.558;2024-02-26T06:10:14;9.80;;;4.60;;
78838;SDS011;68405;47.190;27.558;2024-02-26T06:12:43;15.70;;;6.00;;
78838;SDS011;68405;47.190;27.558;2024-02-26T06:15:12;10.50;;;5.10;;
78838;SDS011;68405;47.190;27.558;2024-02-26T06:17:41;15.60;;;6.00;;
78838;SDS011;68405;47.190;27.558;2024-02-26T06:20:11;8.70;;;4.90;;
78838;SDS011;68405;47.190;27.558;2024-02-26T06:22:40;10.00;;;4.90;;
78838;SDS011;68405;47.190;27.558;2024-02-26T06:25:10;9.90;;;5.20;;
78838;SDS011;68405;47.190;27.558;2024-02-26T06:27:38;10.10;;;5.40;;
78838;SDS011;68405;47.190;27.558;2024-02-26T06:30:08;11.50;;;5.40;;
78838;SDS011;68405;47.190;27.558;2024-02-26T06:32:38;9.60;;;4.40;;
78838;SDS011;68405;47.190;27.558;2024-02-26T06:35:07;12.60;;;5.40;;
78838;SDS011;68405;47.190;27.558;2024-02-26T06:37:38;8.20;;;4.40;;
78838;SDS011;68405;47.190;27.558;2024-02-26T06:40:08;11.50;;;5.30;;
78838;SDS011;68405;47.190;27.558;2024-02-26T06:42:37;9.30;;;4.90;;
78838;SDS011;68405;47.190;27.558;2024-02-26T06:45:07;9.20;;;5.00;;
78838;SDS011;68405;47.190;27.558;2024-02-26T06:47:36;11.40;;;5.30;;
78838;SDS011;68405;47.190;27.558;2024-02-26T06:50:05;10.50;;;5.00;;
78838;SDS011;68405;47.190;27.558;2024-02-26T06:52:35;7.90;;;4.50;;
78838;SDS011;68405;47.190;27.558;2024-02-26T06:55:04;10.10;;;5.60;;
78838;SDS011;68405;47.190;27.558;2024-02-26T06:57:35;6.40;;;4.40;;
78838;SDS011;68405;47.190;27.558;2024-02-26T07:00:08;8.30;;;4.90;;
78838;SDS011;68405;47.190;27.558;2024-02-26T07:02:41;11.50;;;5.10;;
78838;SDS011;68405;47.190;27.558;2024-02-26T07:05:10;12.90;;;5.10;;
78838;SDS011;68405;47.190;27.558;2024-02-26T07:07:39;12.00;;;5.20;;
78838;SDS011;68405;47.190;27.558;2024-02-26T07:10:09;11.20;;;5.40;;
78838;SDS011;68405;47.190;27.558;2024-02-26T07:12:39;10.60;;;5.20;;
78838;SDS011;68405;47.190;27.558;2024-02-26T07:15:08;13.10;;;6.30;;
78838;SDS011;68405;47.190;27.558;2024-02-26T07:17:38;18.20;;;5.60;;
78838;SDS011;68405;47.190;27.558;2024-02-26T07:20:09;13.30;;;5.90;;
78838;SDS011;68405;47.190;27.558;2024-02-26T07:22:39;13.10;;;6.00;;
78838;SDS011;68405;47.190;27.558;2024-02-26T07:25:10;10.40;;;5.40;;
78838;SDS011;68405;47.190;27.558;2024-02-26T07:27:40;10.60;;;5.30;;
78838;SDS011;68405;47.190;27.558;2024-02-26T07:30:10;14.70;;;5.70;;
78838;SDS011;68405;47.190;27.558;2024-02-26T07:32:40;9.70;;;5.00;;
78838;SDS011;68405;47.190;27.558;2024-02-26T07:35:10;8.60;;;4.40;;
78838;SDS011;68405;47.190;27.558;2024-02-26T07:37:39;6.90;;;4.20;;
78838;SDS011;68405;47.190;27.558;2024-02-26T07:40:08;8.80;;;4.20;;
78838;SDS011;68405;47.190;27.558;2024-02-26T07:42:38;8.80;;;4.30;;
78838;SDS011;68405;47.190;27.558;2024-02-26T07:45:07;7.70;;;3.70;;
78838;SDS011;68405;47.190;27.558;2024-02-26T07:47:37;7.10;;;4.30;;
78838;SDS011;68405;47.190;27.558;2024-02-26T07:50:08;9.50;;;4.10;;
78838;SDS011;68405;47.190;27.558;2024-02-26T07:52:38;10.70;;;5.20;;
78838;SDS011;68405;47.190;27.558;2024-02-26T07:55:08;10.00;;;4.90;;
78838;SDS011;68405;47.190;27.558;2024-02-26T07:57:36;8.70;;;5.10;;
78838;SDS011;68405;47.190;27.558;2024-02-26T08:00:10;7.60;;;4.30;;
78838;SDS011;68405;47.190;27.558;2024-02-26T08:02:43;6.80;;;4.00;;
78838;SDS011;68405;47.190;27.558;2024-02-26T08:05:12;9.00;;;4.70;;
78838;SDS011;68405;47.190;27.558;2024-02-26T08:07:42;9.20;;;4.20;;
78838;SDS011;68405;47.190;27.558;2024-02-26T08:10:11;9.40;;;4.50;;
78838;SDS011;68405;47.190;27.558;2024-02-26T08:12:40;9.50;;;4.60;;
78838;SDS011;68405;47.190;27.558;2024-02-26T08:15:09;11.80;;;4.90;;
78838;SDS011;68405;47.190;27.558;2024-02-26T08:17:38;9.40;;;5.10;;
78838;SDS011;68405;47.190;27.558;2024-02-26T08:20:11;15.50;;;5.70;;
78838;SDS011;68405;47.190;27.558;2024-02-26T08:22:41;10.50;;;4.70;;
78838;SDS011;68405;47.190;27.558;2024-02-26T08:25:11;8.90;;;4.90;;
78838;SDS011;68405;47.190;27.558;2024-02-26T08:27:40;9.00;;;4.60;;
78838;SDS011;68405;47.190;27.558;2024-02-26T08:30:14;11.40;;;4.90;;
78838;SDS011;68405;47.190;27.558;2024-02-26T08:32:44;8.00;;;4.50;;
78838;SDS011;68405;47.190;27.558;2024-02-26T08:35:15;10.00;;;4.70;;
78838;SDS011;68405;47.190;27.558;2024-02-26T08:37:44;7.60;;;4.70;;
78838;SDS011;68405;47.190;27.558;2024-02-26T08:40:14;6.90;;;4.30;;
78838;SDS011;68405;47.190;27.558;2024-02-26T08:42:43;10.20;;;5.00;;
78838;SDS011;68405;47.190;27.558;2024-02-26T08:45:12;10.10;;;4.50;;
78838;SDS011;68405;47.190;27.558;2024-02-26T08:47:41;8.10;;;4.80;;
78838;SDS011;68405;47.190;27.558;2024-02-26T08:50:11;9.30;;;4.90;;
78838;SDS011;68405;47.190;27.558;2024-02-26T08:52:41;9.40;;;4.80;;
78838;SDS011;68405;47.190;27.558;2024-02-26T08:55:15;10.40;;;5.20;;
78838;SDS011;68405;47.190;27.558;2024-02-26T08:57:44;8.60;;;4.30;;
78838;SDS011;68405;47.190;27.558;2024-02-26T09:00:15;12.40;;;5.40;;
78838;SDS011;68405;47.190;27.558;2024-02-26T09:02:47;11.30;;;6.00;;
78838;SDS011;68405;47.190;27.558;2024-02-26T09:05:16;10.50;;;4.90;;
78838;SDS011;68405;47.190;27.558;2024-02-26T09:07:45;9.20;;;4.60;;
78838;SDS011;68405;47.190;27.558;2024-02-26T09:10:14;10.30;;;5.00;;
78838;SDS011;68405;47.190;27.558;2024-02-26T09:12:43;9.60;;;5.00;;
78838;SDS011;68405;47.190;27.558;2024-02-26T09:15:14;10.70;;;4.90;;
78838;SDS011;68405;47.190;27.558;2024-02-26T09:17:43;9.10;;;4.40;;
78838;SDS011;68405;47.190;27.558;2024-02-26T09:20:13;11.50;;;5.20;;
78838;SDS011;68405;47.190;27.558;2024-02-26T09:25:14;7.60;;;4.80;;
78838;SDS011;68405;47.190;27.558;2024-02-26T09:27:44;9.00;;;5.10;;
78838;SDS011;68405;47.190;27.558;2024-02-26T09:30:14;9.80;;;5.00;;
78838;SDS011;68405;47.190;27.558;2024-02-26T09:32:45;9.70;;;4.40;;
78838;SDS011;68405;47.190;27.558;2024-02-26T09:35:15;7.30;;;4.30;;
78838;SDS011;68405;47.190;27.558;2024-02-26T09:37:44;11.60;;;5.40;;
78838;SDS011;68405;47.190;27.558;2024-02-26T09:40:13;8.90;;;4.60;;
78838;SDS011;68405;47.190;27.558;2024-02-26T09:42:43;10.30;;;5.40;;
78838;SDS011;68405;47.190;27.558;2024-02-26T09:45:15;14.50;;;5.40;;
78838;SDS011;68405;47.190;27.558;2024-02-26T09:47:48;10.40;;;4.70;;
78838;SDS011;68405;47.190;27.558;2024-02-26T09:50:22;10.10;;;5.00;;
78838;SDS011;68405;47.190;27.558;2024-02-26T09:52:51;12.60;;;5.30;;
78838;SDS011;68405;47.190;27.558;2024-02-26T09:55:21;5.50;;;2.90;;
78838;SDS011;68405;47.190;27.558;2024-02-26T09:57:51;7.00;;;4.00;;
78838;SDS011;68405;47.190;27.558;2024-02-26T10:00:21;11.90;;;5.50;;
78838;SDS011;68405;47.190;27.558;2024-02-26T10:02:52;10.10;;;5.10;;
78838;SDS011;68405;47.190;27.558;2024-02-26T10:05:23;8.70;;;4.70;;
78838;SDS011;68405;47.190;27.558;2024-02-26T10:07:53;9.00;;;4.70;;
78838;SDS011;68405;47.190;27.558;2024-02-26T10:10:24;12.00;;;5.50;;
78838;SDS011;68405;47.190;27.558;2024-02-26T10:12:55;9.90;;;4.40;;
78838;SDS011;68405;47.190;27.558;2024-02-26T10:15:24;9.30;;;4.40;;
78838;SDS011;68405;47.190;27.558;2024-02-26T10:17:54;15.70;;;5.60;;
78838;SDS011;68405;47.190;27.558;2024-02-26T10:20:23;12.20;;;5.60;;
78838;SDS011;68405;47.190;27.558;2024-02-26T10:22:54;13.00;;;5.30;;
78838;SDS011;68405;47.190;27.558;2024-02-26T10:25:23;13.60;;;6.90;;
78838;SDS011;68405;47.190;27.558;2024-02-26T10:27:53;11.80;;;5.30;;
78838;SDS011;68405;47.190;27.558;2024-02-26T10:30:22;14.30;;;5.50;;
78838;SDS011;68405;47.190;27.558;2024-02-26T10:32:53;10.20;;;5.20;;
78838;SDS011;68405;47.190;27.558;2024-02-26T10:35:23;9.80;;;5.40;;
78838;SDS011;68405;47.190;27.558;2024-02-26T10:37:52;12.60;;;5.80;;
78838;SDS011;68405;47.190;27.558;2024-02-26T10:40:21;8.60;;;5.20;;
78838;SDS011;68405;47.190;27.558;2024-02-26T10:42:50;8.80;;;5.00;;
78838;SDS011;68405;47.190;27.558;2024-02-26T10:45:19;8.70;;;4.10;;
78838;SDS011;68405;47.190;27.558;2024-02-26T10:47:48;9.50;;;3.70;;
78838;SDS011;68405;47.190;27.558;2024-02-26T10:50:17;6.90;;;3.90;;
78838;SDS011;68405;47.190;27.558;2024-02-26T10:52:49;9.80;;;4.90;;
78838;SDS011;68405;47.190;27.558;2024-02-26T10:55:20;12.20;;;5.10;;
78838;SDS011;68405;47.190;27.558;2024-02-26T10:57:52;7.60;;;4.10;;
78838;SDS011;68405;47.190;27.558;2024-02-26T11:00:22;8.90;;;4.50;;
78838;SDS011;68405;47.190;27.558;2024-02-26T11:02:52;11.70;;;5.90;;
78838;SDS011;68405;47.190;27.558;2024-02-26T11:05:21;10.50;;;4.70;;
78838;SDS011;68405;47.190;27.558;2024-02-26T11:07:51;10.60;;;4.70;;
78838;SDS011;68405;47.190;27.558;2024-02-26T11:10:22;10.70;;;5.00;;
78838;SDS011;68405;47.190;27.558;2024-02-26T11:12:53;8.80;;;4.40;;
78838;SDS011;68405;47.190;27.558;2024-02-26T11:15:23;12.60;;;4.50;;
78838;SDS011;68405;47.190;27.558;2024-02-26T11:17:53;10.60;;;4.80;;
78838;SDS011;68405;47.190;27.558;2024-02-26T11:20:23;12.60;;;5.10;;
78838;SDS011;68405;47.190;27.558;2024-02-26T11:22:55;11.80;;;4.80;;
78838;SDS011;68405;47.190;27.558;2024-02-26T11:25:25;7.10;;;3.50;;
78838;SDS011;68405;47.190;27.558;2024-02-26T11:27:57;6.80;;;3.00;;
78838;SDS011;68405;47.190;27.558;2024-02-26T11:30:30;6.30;;;3.10;;
78838;SDS011;68405;47.190;27.558;2024-02-26T11:33:05;6.00;;;2.80;;
78838;SDS011;68405;47.190;27.558;2024-02-26T11:35:35;8.70;;;3.30;;
78838;SDS011;68405;47.190;27.558;2024-02-26T11:38:05;7.00;;;3.30;;
78838;SDS011;68405;47.190;27.558;2024-02-26T11:40:45;5.50;;;2.50;;
78838;SDS011;68405;47.190;27.558;2024-02-26T11:43:15;6.20;;;3.10;;
78838;SDS011;68405;47.190;27.558;2024-02-26T11:45:53;6.40;;;2.80;;
78838;SDS011;68405;47.190;27.558;2024-02-26T11:48:28;6.20;;;3.40;;
78838;SDS011;68405;47.190;27.558;2024-02-26T11:50:59;5.50;;;2.80;;
78838;SDS011;68405;47.190;27.558;2024-02-26T11:53:30;5.80;;;3.00;;
78838;SDS011;68405;47.190;27.558;2024-02-26T11:59:03;5.60;;;2.80;;
78838;SDS011;68405;47.190;27.558;2024-02-26T12:01:45;7.40;;;3.50;;
78838;SDS011;68405;47.190;27.558;2024-02-26T12:04:16;6.40;;;2.70;;
78838;SDS011;68405;47.190;27.558;2024-02-26T12:06:48;4.90;;;3.00;;
78838;SDS011;68405;47.190;27.558;2024-02-26T12:09:32;5.80;;;3.00;;
78838;SDS011;68405;47.190;27.558;2024-02-26T12:12:03;5.10;;;3.20;;
78838;SDS011;68405;47.190;27.558;2024-02-26T12:14:34;5.60;;;3.00;;
78838;SDS011;68405;47.190;27.558;2024-02-26T12:17:04;7.90;;;3.50;;
78838;SDS011;68405;47.190;27.558;2024-02-26T12:19:35;8.90;;;3.80;;
78838;SDS011;68405;47.190;27.558;2024-02-26T12:22:05;6.00;;;3.70;;
78838;SDS011;68405;47.190;27.558;2024-02-26T12:24:35;6.10;;;3.60;;
78838;SDS011;68405;47.190;27.558;2024-02-26T12:27:04;6.90;;;3.00;;
78838;SDS011;68405;47.190;27.558;2024-02-26T12:29:34;5.60;;;2.70;;
78838;SDS011;68405;47.190;27.558;2024-02-26T12:32:04;3.70;;;2.60;;
78838;SDS011;68405;47.190;27.558;2024-02-26T12:34:33;5.40;;;2.70;;
78838;SDS011;68405;47.190;27.558;2024-02-26T12:37:03;5.50;;;2.90;;
78838;SDS011;68405;47.190;27.558;2024-02-26T12:39:34;5.30;;;2.60;;
78838;SDS011;68405;47.190;27.558;2024-02-26T12:42:04;5.70;;;2.50;;
78838;SDS011;68405;47.190;27.558;2024-02-26T12:44:34;8.20;;;2.90;;
78838;SDS011;68405;47.190;27.558;2024-02-26T12:47:03;5.30;;;2.60;;
78838;SDS011;68405;47.190;27.558;2024-02-26T12:49:32;4.50;;;2.70;;
78838;SDS011;68405;47.190;27.558;2024-02-26T12:52:01;4.60;;;2.90;;
78838;SDS011;68405;47.190;27.558;2024-02-26T12:54:30;4.90;;;2.50;;
78838;SDS011;68405;47.190;27.558;2024-02-26T12:57:01;4.90;;;2.80;;
78838;SDS011;68405;47.190;27.558;2024-02-26T12:59:31;10.40;;;4.00;;
78838;SDS011;68405;47.190;27.558;2024-02-26T13:02:01;6.30;;;2.90;;
78838;SDS011;68405;47.190;27.558;2024-02-26T13:04:31;4.70;;;3.10;;
78838;SDS011;68405;47.190;27.558;2024-02-26T13:07:03;6.00;;;2.90;;
78838;SDS011;68405;47.190;27.558;2024-02-26T13:09:33;6.70;;;3.00;;
78838;SDS011;68405;47.190;27.558;2024-02-26T13:12:04;7.30;;;3.30;;
78838;SDS011;68405;47.190;27.558;2024-02-26T13:14:34;5.90;;;3.00;;
78838;SDS011;68405;47.190;27.558;2024-02-26T13:17:03;7.50;;;3.40;;
78838;SDS011;68405;47.190;27.558;2024-02-26T13:19:32;7.00;;;3.30;;
78838;SDS011;68405;47.190;27.558;2024-02-26T13:22:05;5.50;;;3.30;;
78838;SDS011;68405;47.190;27.558;2024-02-26T13:24:34;5.90;;;3.50;;
78838;SDS011;68405;47.190;27.558;2024-02-26T13:27:04;9.40;;;3.80;;
78838;SDS011;68405;47.190;27.558;2024-02-26T13:29:33;8.50;;;4.00;;
78838;SDS011;68405;47.190;27.558;2024-02-26T13:32:02;6.10;;;3.70;;
78838;SDS011;68405;47.190;27.558;2024-02-26T13:34:35;11.20;;;3.30;;
78838;SDS011;68405;47.190;27.558;2024-02-26T13:37:10;8.80;;;3.50;;
78838;SDS011;68405;47.190;27.558;2024-02-26T13:39:39;6.30;;;3.50;;
78838;SDS011;68405;47.190;27.558;2024-02-26T13:42:09;6.80;;;3.40;;
78838;SDS011;68405;47.190;27.558;2024-02-26T13:44:38;4.00;;;2.60;;
78838;SDS011;68405;47.190;27.558;2024-02-26T13:47:07;7.20;;;3.40;;
78838;SDS011;68405;47.190;27.558;2024-02-26T13:49:36;5.80;;;3.20;;
78838;SDS011;68405;47.190;27.558;2024-02-26T13:52:05;9.30;;;3.20;;
78838;SDS011;68405;47.190;27.558;2024-02-26T13:54:34;7.10;;;2.90;;
78838;SDS011;68405;47.190;27.558;2024-02-26T13:57:05;5.80;;;3.00;;
78838;SDS011;68405;47.190;27.558;2024-02-26T13:59:35;5.30;;;3.20;;
78838;SDS011;68405;47.190;27.558;2024-02-26T14:02:08;4.60;;;3.00;;
78838;SDS011;68405;47.190;27.558;2024-02-26T14:04:37;7.10;;;2.50;;
78838;SDS011;68405;47.190;27.558;2024-02-26T14:07:06;6.30;;;3.00;;
78838;SDS011;68405;47.190;27.558;2024-02-26T14:09:36;5.80;;;2.80;;
78838;SDS011;68405;47.190;27.558;2024-02-26T14:12:05;6.90;;;3.00;;
78838;SDS011;68405;47.190;27.558;2024-02-26T14:14:34;5.70;;;3.00;;
78838;SDS011;68405;47.190;27.558;2024-02-26T14:17:06;9.60;;;3.10;;
78838;SDS011;68405;47.190;27.558;2024-02-26T14:19:35;4.50;;;2.40;;
78838;SDS011;68405;47.190;27.558;2024-02-26T14:22:06;5.50;;;2.90;;
78838;SDS011;68405;47.190;27.558;2024-02-26T14:24:35;10.10;;;3.20;;
78838;SDS011;68405;47.190;27.558;2024-02-26T14:27:04;7.00;;;2.70;;
78838;SDS011;68405;47.190;27.558;2024-02-26T14:29:33;5.60;;;3.10;;
78838;SDS011;68405;47.190;27.558;2024-02-26T14:32:02;5.30;;;2.90;;
78838;SDS011;68405;47.190;27.558;2024-02-26T14:34:32;4.90;;;2.30;;
78838;SDS011;68405;47.190;27.558;2024-02-26T14:37:01;5.40;;;2.40;;
78838;SDS011;68405;47.190;27.558;2024-02-26T14:39:31;5.40;;;2.70;;
78838;SDS011;68405;47.190;27.558;2024-02-26T14:42:00;6.60;;;2.80;;
78838;SDS011;68405;47.190;27.558;2024-02-26T14:44:29;5.00;;;2.20;;
78838;SDS011;68405;47.190;27.558;2024-02-26T14:46:58;6.00;;;2.50;;
78838;SDS011;68405;47.190;27.558;2024-02-26T14:49:27;8.50;;;2.50;;